Terminal Aerodrome Forecast
Issued by NWS Knoxville/Tri Cities, TN

Home | Current Version | Previous Version | Text Only | Print | Product List | Glossary On
Versions: 1 2 3 4 5 6 7 8 9 10 11 12 13 14 15 16 17 18 19 20
000
FTUS44 KMRX 222033 AAA
TAFCHA
TAF AMD
KCHA 222033Z 2221/2318 24010G20KT P6SM VCSH SCT020 BKN040
     FM222200 17003KT P6SM BKN070
     FM231000 17003KT P6SM BKN025
     FM231600 18005KT P6SM BKN035=

USA.gov is the U.S. government's official web portal to all federal, state and local government web resources and services.